Langley, Virginia
Current Conditions -  °F | °C
As of 6:58 PM on Sunday 25 Jan 2015 (Local Time) from KLFI Reporting Station
Clear Clear  
Wind Chill: 39°   Ceiling: Unl
Heat Index: 39°   Visibility: 10mi
Dew Point: 32°   Wind: 2mph
Humidity: 77%   Direction: 150°SSE
Pressure: 29.87"   Gusts: NA
Location:  37.0868°N, 76.3631°W
Report Text: KLFI 252358Z AUTO 15002KT 10SM CLR 04/00 A2987 RMK AO2 SLP122 T00370000 10108 20033 53001 $
Loading
Personal Weather Stations






























Interactive Weather Map New forecast layout! Learn more

10-Day Weather Forecast

Advertisements
Track Severe Weather on mobile